Time;durP1;ratioP1;P1;durP2;ratioP2;P2;SDS_P1;SDS_P2;PMS_P1;PMS_P2;Temp;Humidity;BMP_temperature;BMP_pressure;BME280_temperature;BME280_humidity;BME280_pressure;Samples;Min_cycle;Max_cycle;Signal;HPM_P1;HPM_P2
2022/08/27 00:00:28;;;;;;;8.50;5.90;;;;;;;15.92;73.68;96886.49;110044;1247;71647;-65
2022/08/27 00:03:05;;;;;;;8.50;5.80;;;;;;;15.87;78.51;96891.75;109763;1250;68647;-66
2022/08/27 00:05:35;;;;;;;8.20;5.70;;;;;;;15.83;78.90;96893.05;110209;1248;68774;-63
2022/08/27 00:08:08;;;;;;;8.10;5.30;;;;;;;15.80;78.02;96890.88;109791;1250;59776;-63
2022/08/27 00:10:38;;;;;;;6.50;5.00;;;;;;;15.78;75.15;96889.27;110082;1249;59739;-66
2022/08/27 00:13:07;;;;;;;8.50;6.10;;;;;;;15.77;73.73;96888.89;110063;1249;70784;-65
2022/08/27 00:15:37;;;;;;;8.40;6.50;;;;;;;15.74;76.03;96885.32;110058;1249;69362;-66
2022/08/27 00:18:07;;;;;;;10.00;6.60;;;;;;;15.72;76.22;96886.10;109746;1250;68598;-63
2022/08/27 00:20:37;;;;;;;9.60;6.20;;;;;;;15.68;77.10;96884.70;110048;1248;60134;-64
2022/08/27 00:23:06;;;;;;;10.30;6.70;;;;;;;15.68;77.05;96890.11;110017;1249;59758;-63
2022/08/27 00:25:36;;;;;;;8.80;6.30;;;;;;;15.70;77.16;96892.38;110034;1249;70798;-64
2022/08/27 00:28:05;;;;;;;10.20;7.20;;;;;;;15.71;76.53;96890.33;110049;1249;68699;-64
2022/08/27 00:30:36;;;;;;;11.20;7.60;;;;;;;15.73;75.86;96888.88;110012;1249;69353;-64
2022/08/27 00:33:08;;;;;;;10.80;7.50;;;;;;;15.75;77.09;96895.04;110045;1248;59734;-64
2022/08/27 00:35:39;;;;;;;10.40;6.60;;;;;;;15.76;77.32;96893.55;110033;1248;59699;-64
2022/08/27 00:38:12;;;;;;;9.00;6.50;;;;;;;15.77;77.34;96894.67;110054;1249;71560;-64
2022/08/27 00:40:42;;;;;;;13.50;6.40;;;;;;;15.78;77.20;96896.02;110055;1249;69920;-65
2022/08/27 00:43:19;;;;;;;8.20;6.20;;;;;;;15.78;76.86;96897.73;110027;1249;69453;-66
2022/08/27 00:45:53;;;;;;;8.20;5.40;;;;;;;15.78;76.53;96899.45;109676;1249;59731;-66
2022/08/27 00:48:27;;;;;;;9.90;5.90;;;;;;;15.78;74.74;96900.77;109903;1250;59694;-66
2022/08/27 00:50:57;;;;;;;8.60;6.60;;;;;;;15.74;75.90;96899.23;110238;1248;71720;-64
2022/08/27 00:53:32;;;;;;;9.80;6.70;;;;;;;15.68;75.54;96898.08;110133;1247;68599;-64
2022/08/27 00:56:16;;;;;;;9.50;7.40;;;;;;;15.61;76.98;96898.23;110025;1247;69422;-64
2022/08/27 00:58:50;;;;;;;8.40;6.20;;;;;;;15.54;75.82;96898.55;110066;1247;60007;-66
2022/08/27 01:01:27;;;;;;;8.60;6.10;;;;;;;15.47;75.56;96896.79;110047;1248;59719;-66
2022/08/27 01:04:04;;;;;;;7.60;6.40;;;;;;;15.41;75.25;96899.91;110057;1247;71958;-64
2022/08/27 01:06:36;;;;;;;7.60;5.90;;;;;;;15.35;75.51;96900.13;110072;1247;69256;-67
2022/08/27 01:09:14;;;;;;;9.00;6.10;;;;;;;15.31;75.45;96907.57;110345;1248;69432;-64
2022/08/27 01:11:46;;;;;;;9.10;5.70;;;;;;;15.27;75.34;96909.35;110122;1246;59718;-66
2022/08/27 01:14:18;;;;;;;7.40;5.90;;;;;;;15.25;75.87;96906.61;110079;1247;59762;-66
2022/08/27 01:16:53;;;;;;;10.40;6.70;;;;;;;15.23;77.24;96906.61;110151;1247;71419;-65
2022/08/27 01:19:46;;;;;;;8.50;5.90;;;;;;;15.22;78.39;96903.90;110106;1247;69496;-65
2022/08/27 01:22:40;;;;;;;7.50;5.80;;;;;;;15.20;78.37;96905.99;110101;1247;68567;-65
2022/08/27 01:25:13;;;;;;;9.70;7.30;;;;;;;15.19;79.17;96902.83;110032;1247;59711;-64
2022/08/27 01:27:45;;;;;;;8.60;6.20;;;;;;;15.17;80.28;96903.48;110063;1247;59703;-65
2022/08/27 01:30:19;;;;;;;10.40;6.50;;;;;;;15.14;81.06;96898.52;109746;1248;70942;-64
2022/08/27 01:32:49;;;;;;;8.40;6.30;;;;;;;15.13;81.39;96893.64;110053;1247;68861;-64
2022/08/27 01:35:22;;;;;;;9.10;6.90;;;;;;;15.10;82.07;96891.73;110050;1247;69417;-64
2022/08/27 01:37:53;;;;;;;7.30;6.10;;;;;;;15.08;81.40;96894.81;109957;1250;59687;-64
2022/08/27 01:40:24;;;;;;;8.10;6.40;;;;;;;15.04;82.23;96891.86;110000;1250;59755;-65
2022/08/27 01:42:57;;;;;;;10.30;5.90;;;;;;;15.02;81.32;96895.19;110038;1250;71578;-64
2022/08/27 01:45:30;;;;;;;8.50;6.70;;;;;;;15.00;81.33;96888.73;110028;1249;69362;-65
2022/08/27 01:48:01;;;;;;;8.40;6.80;;;;;;;14.98;82.11;96889.14;109998;1247;69485;-63
2022/08/27 01:50:35;;;;;;;10.80;6.40;;;;;;;14.96;82.33;96893.95;110040;1247;59758;-65
2022/08/27 01:53:09;;;;;;;8.50;6.50;;;;;;;14.95;82.30;96893.05;110033;1249;59690;-65
2022/08/27 01:55:40;;;;;;;8.70;6.80;;;;;;;14.94;82.59;96894.92;110029;1248;70995;-65
2022/08/27 01:58:24;;;;;;;8.70;5.70;;;;;;;14.93;82.13;96893.24;109818;1247;68700;-62
2022/08/27 02:00:57;;;;;;;8.00;7.10;;;;;;;14.92;79.01;96892.36;110069;1247;69221;-64
2022/08/27 02:03:26;;;;;;;10.30;6.90;;;;;;;14.89;80.32;96893.50;110082;1247;59712;-64
2022/08/27 02:05:55;;;;;;;9.50;7.10;;;;;;;14.87;81.30;96895.94;110087;1247;59690;-64
2022/08/27 02:08:25;;;;;;;8.10;7.00;;;;;;;14.86;82.43;96893.11;110039;1247;71371;-64
2022/08/27 02:10:56;;;;;;;7.60;6.40;;;;;;;14.85;82.81;96894.77;110085;1247;67448;-66
2022/08/27 02:13:27;;;;;;;10.60;7.30;;;;;;;14.82;83.43;96894.58;110214;1247;69421;-66
2022/08/27 02:15:57;;;;;;;9.00;6.60;;;;;;;14.78;84.20;96894.38;110221;1247;59763;-65
2022/08/27 02:18:27;;;;;;;9.60;6.90;;;;;;;14.77;83.68;96896.71;110115;1247;59689;-65
2022/08/27 02:20:57;;;;;;;10.10;6.10;;;;;;;14.77;82.57;96897.27;110051;1247;71503;-65
2022/08/27 02:23:27;;;;;;;8.40;6.30;;;;;;;14.77;82.54;96900.23;110018;1249;68507;-65
2022/08/27 02:25:56;;;;;;;7.20;6.00;;;;;;;14.75;82.05;96897.63;110023;1247;69025;-65
2022/08/27 02:28:26;;;;;;;9.20;6.50;;;;;;;14.74;83.44;96901.92;110074;1247;59690;-65
2022/08/27 02:30:56;;;;;;;9.00;6.80;;;;;;;14.72;81.71;96902.82;110034;1247;59637;-65
2022/08/27 02:33:27;;;;;;;11.10;7.60;;;;;;;14.70;81.36;96899.35;110063;1247;71607;-64
2022/08/27 02:35:57;;;;;;;9.10;6.50;;;;;;;14.69;83.62;96902.09;110034;1247;68667;-64
2022/08/27 02:38:28;;;;;;;8.70;6.90;;;;;;;14.65;83.51;96900.71;110069;1246;69131;-64
2022/08/27 02:40:58;;;;;;;11.10;7.00;;;;;;;14.63;83.08;96902.20;110071;1247;59760;-64
2022/08/27 02:43:30;;;;;;;10.30;7.30;;;;;;;14.60;79.71;96902.98;110061;1247;60007;-64
2022/08/27 02:46:03;;;;;;;6.90;5.50;;;;;;;14.57;78.98;96902.83;110046;1247;70743;-65
2022/08/27 02:48:36;;;;;;;8.10;6.40;;;;;;;14.53;78.43;96904.94;110039;1247;68741;-64
2022/08/27 02:51:07;;;;;;;7.70;5.50;;;;;;;14.48;78.68;96902.41;110037;1247;69396;-64
2022/08/27 02:53:37;;;;;;;8.10;6.10;;;;;;;14.44;78.78;96903.64;110027;1247;59628;-64
2022/08/27 02:56:08;;;;;;;9.70;7.00;;;;;;;14.40;81.24;96901.59;110068;1247;59753;-64
2022/08/27 02:58:40;;;;;;;9.70;7.10;;;;;;;14.33;83.23;96903.62;110079;1247;71512;-64
2022/08/27 03:01:09;;;;;;;13.10;7.10;;;;;;;14.28;84.51;96903.83;110102;1247;69180;-64
2022/08/27 03:03:42;;;;;;;9.20;7.20;;;;;;;14.23;84.01;96904.04;110078;1247;68697;-64
2022/08/27 03:06:13;;;;;;;8.70;6.20;;;;;;;14.23;84.24;96905.13;110046;1247;59633;-64
2022/08/27 03:08:43;;;;;;;8.40;7.10;;;;;;;14.20;81.23;96905.55;110052;1247;59708;-65
2022/08/27 03:11:22;;;;;;;9.40;7.60;;;;;;;14.19;81.06;96904.11;110039;1247;70704;-64
2022/08/27 03:13:52;;;;;;;8.90;6.70;;;;;;;14.18;84.00;96907.70;110076;1247;68600;-64
2022/08/27 03:16:23;;;;;;;11.60;6.60;;;;;;;14.16;84.82;96908.02;110035;1247;69146;-65
2022/08/27 03:18:53;;;;;;;9.30;6.50;;;;;;;14.11;84.39;96904.84;110082;1247;59725;-65
2022/08/27 03:21:26;;;;;;;8.10;6.70;;;;;;;14.08;84.52;96903.77;110313;1247;59716;-65
2022/08/27 03:23:55;;;;;;;9.60;8.00;;;;;;;14.05;84.37;96902.50;110284;1247;71527;-66
2022/08/27 03:26:25;;;;;;;10.80;7.70;;;;;;;14.02;84.25;96904.14;110166;1246;68691;-65
2022/08/27 03:28:55;;;;;;;10.30;6.90;;;;;;;14.01;83.98;96907.55;110104;1247;68589;-65
2022/08/27 03:31:28;;;;;;;10.20;6.00;;;;;;;14.00;83.84;96911.70;110077;1247;59734;-64
2022/08/27 03:34:09;;;;;;;6.70;5.90;;;;;;;13.98;83.29;96913.31;110070;1247;59670;-64
2022/08/27 03:36:39;;;;;;;10.80;7.10;;;;;;;13.94;84.89;96916.32;110081;1247;71585;-64
2022/08/27 03:39:08;;;;;;;8.90;7.90;;;;;;;13.88;85.65;96915.94;110055;1247;69579;-64
2022/08/27 03:41:38;;;;;;;7.50;6.70;;;;;;;13.83;85.52;96920.83;110060;1247;69430;-65
2022/08/27 03:44:25;;;;;;;10.90;7.80;;;;;;;13.76;86.78;96920.21;110068;1247;59776;-64
2022/08/27 03:46:55;;;;;;;13.20;8.90;;;;;;;13.73;87.13;96925.77;110078;1247;60196;-64
2022/08/27 03:49:25;;;;;;;9.70;6.90;;;;;;;13.72;87.35;96925.20;110076;1247;71594;-65
2022/08/27 03:51:54;;;;;;;;;;;;;;;13.73;87.10;96925.81;110064;1247;69376;-64
2022/08/27 03:54:24;;;;;;;9.50;7.20;;;;;;;13.72;87.27;96925.84;110042;1247;68624;-65
2022/08/27 03:56:53;;;;;;;11.40;8.20;;;;;;;13.72;86.73;96923.23;110028;1247;59725;-65
2022/08/27 03:59:23;;;;;;;9.60;6.90;;;;;;;13.73;86.47;96920.88;110017;1248;59638;-66
2022/08/27 04:01:52;;;;;;;8.60;6.70;;;;;;;13.75;86.54;96925.16;110132;1247;70862;-63
2022/08/27 04:04:23;;;;;;;8.40;6.40;;;;;;;13.77;86.05;96922.23;110042;1249;69454;-64
2022/08/27 04:06:54;;;;;;;6.30;5.70;;;;;;;13.80;85.47;96923.73;109985;1250;68464;-64
2022/08/27 04:09:27;;;;;;;12.50;7.30;;;;;;;13.84;85.44;96922.35;110015;1250;59674;-64
2022/08/27 04:11:57;;;;;;;11.60;9.30;;;;;;;13.81;86.36;96921.72;109993;1249;60120;-67
2022/08/27 04:14:26;;;;;;;10.60;9.00;;;;;;;13.81;86.27;96923.33;110006;1249;70585;-65
2022/08/27 04:16:56;;;;;;;15.70;10.20;;;;;;;13.81;86.31;96930.11;109821;1249;68414;-66
2022/08/27 04:19:26;;;;;;;9.80;8.40;;;;;;;13.85;84.80;96931.50;110039;1249;68049;-65
2022/08/27 04:22:01;;;;;;;12.60;8.30;;;;;;;13.88;85.92;96932.79;110177;1248;59680;-64
2022/08/27 04:24:33;;;;;;;10.60;7.90;;;;;;;13.97;86.14;96930.88;110001;1250;59658;-66
2022/08/27 04:27:04;;;;;;;10.30;6.60;;;;;;;14.10;85.58;96930.05;109855;1250;71416;-66
2022/08/27 04:29:33;;;;;;;8.00;6.10;;;;;;;14.26;84.50;96929.87;110380;1247;69392;-65
2022/08/27 04:32:04;;;;;;;10.30;7.30;;;;;;;14.46;83.41;96928.30;110254;1247;69246;-65
2022/08/27 04:34:34;;;;;;;10.00;6.30;;;;;;;14.64;83.07;96931.88;110088;1247;59702;-64
2022/08/27 04:37:05;;;;;;;8.30;6.20;;;;;;;14.88;82.55;96933.95;110106;1247;59621;-65
2022/08/27 04:39:35;;;;;;;7.80;6.10;;;;;;;15.10;81.77;96932.28;110110;1247;71492;-65
2022/08/27 04:42:04;;;;;;;8.30;7.30;;;;;;;15.23;80.53;96936.58;110023;1248;67722;-65
2022/08/27 04:44:33;;;;;;;9.20;6.50;;;;;;;15.37;79.90;96938.75;110038;1249;68982;-65
2022/08/27 04:47:04;;;;;;;9.00;8.00;;;;;;;15.55;79.90;96937.14;110041;1249;59760;-65
2022/08/27 04:49:35;;;;;;;7.20;6.50;;;;;;;15.74;78.76;96936.25;109974;1249;59704;-65
2022/08/27 04:52:04;;;;;;;8.80;6.50;;;;;;;15.94;78.03;96934.42;109983;1247;71667;-64
2022/08/27 04:54:34;;;;;;;;;;;;;;;16.15;77.30;96933.84;108805;1247;1669894;-64
2022/08/27 04:57:06;;;;;;;10.00;7.70;;;;;;;16.38;77.34;96933.10;110022;1247;69425;-65
2022/08/27 04:59:35;;;;;;;10.60;6.40;;;;;;;16.57;76.77;96934.71;110050;1248;59693;-65
2022/08/27 05:02:08;;;;;;;8.00;7.00;;;;;;;16.78;76.48;96933.27;110040;1247;59684;-65
2022/08/27 05:04:39;;;;;;;10.20;7.20;;;;;;;16.94;74.18;96931.80;110054;1247;71541;-65
2022/08/27 05:07:09;;;;;;;9.00;7.20;;;;;;;17.22;75.47;96937.59;110079;1247;68464;-64
2022/08/27 05:09:38;;;;;;;10.10;7.20;;;;;;;17.53;75.69;96933.21;110029;1247;68844;-62
2022/08/27 05:12:07;;;;;;;10.70;8.30;;;;;;;17.76;73.54;96928.91;110044;1247;59757;-64
2022/08/27 05:14:37;;;;;;;16.60;10.20;;;;;;;18.04;73.54;96931.66;110039;1247;59637;-65
2022/08/27 05:17:05;;;;;;;13.90;10.10;;;;;;;18.20;70.60;96929.59;110050;1248;70969;-65
2022/08/27 05:19:34;;;;;;;11.50;8.80;;;;;;;18.39;70.90;96928.98;110029;1249;69439;-65
2022/08/27 05:22:04;;;;;;;9.90;7.80;;;;;;;18.71;71.26;96938.05;110001;1249;69108;-65
2022/08/27 05:24:33;;;;;;;;;;;;;;;19.05;68.95;96931.69;110041;1250;59678;-64
2022/08/27 05:27:01;;;;;;;9.50;7.50;;;;;;;19.36;69.65;96935.10;109987;1250;59616;-66
2022/08/27 05:29:31;;;;;;;8.20;6.80;;;;;;;19.60;66.89;96934.58;110045;1250;71451;-65
2022/08/27 05:32:00;;;;;;;8.10;6.30;;;;;;;19.85;65.97;96930.17;110023;1248;68508;-64
2022/08/27 05:34:29;;;;;;;10.20;8.20;;;;;;;20.20;66.95;96931.56;110012;1249;69560;-65
2022/08/27 05:36:59;;;;;;;10.20;8.40;;;;;;;20.47;64.87;96932.19;110168;1250;59638;-65
2022/08/27 05:39:28;;;;;;;12.80;10.10;;;;;;;20.60;62.53;96932.16;110404;1250;59707;-66
2022/08/27 05:41:57;;;;;;;;;;;;;;;20.69;62.81;96932.14;110081;1248;69977;-65
2022/08/27 05:44:26;;;;;;;15.90;11.20;;;;;;;20.77;61.47;96933.34;110007;1249;68632;-66
2022/08/27 05:47:10;;;;;;;12.30;9.90;;;;;;;21.01;61.49;96932.16;109997;1249;68815;-66
2022/08/27 05:49:39;;;;;;;11.00;9.40;;;;;;;21.19;61.28;96931.04;110037;1249;59756;-65
2022/08/27 05:52:09;;;;;;;9.30;7.40;;;;;;;21.34;60.69;96928.29;110063;1247;59639;-65
2022/08/27 05:54:40;;;;;;;11.30;8.10;;;;;;;21.51;59.59;96925.59;110004;1250;71474;-66
2022/08/27 05:57:10;;;;;;;9.40;7.60;;;;;;;21.76;58.02;96926.02;109858;1249;68759;-66
2022/08/27 06:02:27;;;;;;;10.10;7.50;;;;;;;22.17;56.21;96929.88;109979;1250;59755;-66
2022/08/27 06:04:56;;;;;;;8.80;7.10;;;;;;;22.32;57.26;96921.00;109997;1249;60173;-66
2022/08/27 06:07:25;;;;;;;9.00;6.20;;;;;;;22.59;56.44;96920.01;110072;1249;71605;-65
2022/08/27 06:09:56;;;;;;;11.10;7.00;;;;;;;22.84;55.30;96922.60;110005;1250;69813;-66
2022/08/27 06:12:27;;;;;;;11.40;6.80;;;;;;;23.17;55.50;96928.57;110012;1248;69549;-66
2022/08/27 06:14:57;;;;;;;8.00;5.90;;;;;;;23.32;53.95;96930.52;109992;1249;59800;-63
2022/08/27 06:17:26;;;;;;;;;;;;;;;23.59;53.99;96930.83;110028;1249;60090;-65
2022/08/27 06:19:56;;;;;;;7.90;5.10;;;;;;;23.86;54.32;96938.48;109991;1250;72140;-65
2022/08/27 06:22:25;;;;;;;10.70;6.10;;;;;;;24.25;52.74;96936.46;110062;1250;69446;-65
2022/08/27 06:24:54;;;;;;;;;;;;;;;24.33;49.73;96938.69;110074;1247;69464;-65
2022/08/27 06:27:23;;;;;;;11.90;7.40;;;;;;;24.06;49.79;96939.80;109979;1250;59693;-66
2022/08/27 06:29:52;;;;;;;11.10;6.40;;;;;;;23.70;50.66;96940.96;109738;1250;59700;-65
2022/08/27 06:32:22;;;;;;;8.60;6.10;;;;;;;23.62;51.22;96938.14;109857;1247;71611;-65
2022/08/27 06:34:51;;;;;;;12.00;6.60;;;;;;;23.68;51.33;96942.79;110066;1247;69385;-65
2022/08/27 06:37:20;;;;;;;7.50;5.90;;;;;;;23.66;50.47;96943.09;110038;1247;69571;-64
2022/08/27 06:39:50;;;;;;;11.00;6.30;;;;;;;23.74;50.17;96948.83;110000;1250;59756;-66
2022/08/27 06:42:19;;;;;;;9.20;5.70;;;;;;;23.77;48.57;96953.34;110540;1249;59700;-64
2022/08/27 06:44:53;;;;;;;9.70;6.80;;;;;;;23.78;48.98;96957.16;110022;1249;70771;-66
2022/08/27 06:47:22;;;;;;;10.60;5.80;;;;;;;23.92;48.59;96957.36;110066;1249;68365;-65
2022/08/27 06:49:51;;;;;;;7.40;6.30;;;;;;;24.06;49.01;96956.17;110036;1250;69398;-65
2022/08/27 06:52:19;;;;;;;7.80;6.00;;;;;;;24.43;48.02;96952.48;109986;1249;59709;-64
2022/08/27 06:54:49;;;;;;;10.10;7.40;;;;;;;24.51;47.92;96955.88;110005;1250;59668;-65
2022/08/27 06:57:17;;;;;;;;;;;;;;;24.61;47.89;96962.42;110035;1249;70590;-67
2022/08/27 06:59:46;;;;;;;9.00;6.90;;;;;;;24.64;47.36;96964.21;110027;1250;68672;-64
2022/08/27 07:02:17;;;;;;;13.40;9.90;;;;;;;24.45;46.87;96963.36;110156;1247;68617;-66
2022/08/27 07:04:46;;;;;;;12.80;9.00;;;;;;;24.44;47.37;96959.61;110071;1247;59699;-66
2022/08/27 07:07:15;;;;;;;19.10;8.70;;;;;;;24.50;47.58;96958.66;110054;1247;59775;-68
2022/08/27 07:10:02;;;;;;;12.60;8.90;;;;;;;24.89;47.06;96958.39;110032;1247;72177;-66
2022/08/27 07:12:31;;;;;;;13.00;7.70;;;;;;;25.02;46.29;96967.34;110143;1247;69217;-66
2022/08/27 07:15:01;;;;;;;;;;;;;;;25.24;45.67;96966.88;110075;1250;68576;-66
2022/08/27 07:17:29;;;;;;;9.30;6.70;;;;;;;25.25;45.20;96966.57;110009;1248;59729;-67
2022/08/27 07:19:58;;;;;;;8.30;6.70;;;;;;;25.52;45.44;96962.90;110051;1247;59797;-66
2022/08/27 07:22:28;;;;;;;12.30;7.50;;;;;;;25.69;44.27;96962.37;110057;1250;70880;-67
2022/08/27 07:24:57;;;;;;;10.00;7.00;;;;;;;25.90;43.63;96961.52;109797;1250;69688;-67
2022/08/27 07:27:26;;;;;;;10.80;6.60;;;;;;;26.00;43.28;96960.52;110079;1250;70144;-65
2022/08/27 07:29:55;;;;;;;9.50;6.70;;;;;;;26.31;43.54;96958.73;110059;1250;59697;-65
2022/08/27 07:32:24;;;;;;;8.80;5.80;;;;;;;26.43;42.67;96959.05;110082;1250;59694;-67
2022/08/27 07:34:59;;;;;;;7.20;5.80;;;;;;;26.58;42.14;96960.52;109998;1249;71982;-67
2022/08/27 07:37:28;;;;;;;;;;;;;;;26.36;42.64;96959.27;110005;1250;69989;-67
2022/08/27 07:40:12;;;;;;;11.50;7.30;;;;;;;26.57;42.15;96957.65;109970;1250;69676;-66
2022/08/27 07:45:30;;;;;;;7.80;5.90;;;;;;;26.88;41.25;96958.97;110018;1248;59700;-66
2022/08/27 07:47:58;;;;;;;6.90;4.90;;;;;;;27.37;40.47;96960.15;110011;1250;71645;-65
2022/08/27 07:50:27;;;;;;;7.20;5.70;;;;;;;27.79;40.35;96955.63;110067;1250;69395;-67
2022/08/27 07:52:57;;;;;;;7.30;5.10;;;;;;;27.92;38.83;96952.83;110012;1247;70078;-67
2022/08/27 07:55:26;;;;;;;12.80;6.20;;;;;;;28.18;38.97;96954.86;109996;1250;59828;-66
2022/08/27 07:57:55;;;;;;;8.90;5.90;;;;;;;28.44;37.19;96947.52;109639;1250;60143;-65
2022/08/27 08:00:24;;;;;;;11.20;6.00;;;;;;;28.45;37.23;96949.94;110054;1250;72189;-65
2022/08/27 08:02:53;;;;;;;9.50;5.20;;;;;;;28.48;37.15;96950.02;110046;1248;68395;-66
2022/08/27 08:05:22;;;;;;;9.70;5.70;;;;;;;28.49;37.48;96948.46;109999;1249;69538;-66
2022/08/27 08:07:51;;;;;;;7.90;5.40;;;;;;;28.65;37.50;96948.86;110033;1248;59765;-66
2022/08/27 08:10:23;;;;;;;7.60;5.50;;;;;;;28.44;37.84;96951.38;110043;1247;60100;-67
2022/08/27 08:12:52;;;;;;;6.60;4.20;;;;;;;28.69;37.57;96949.77;110073;1247;70810;-67
2022/08/27 08:15:21;;;;;;;;;;;;;;;29.19;36.00;96947.11;110087;1247;68650;-67
2022/08/27 08:17:50;;;;;;;8.00;4.80;;;;;;;29.75;35.88;96950.83;110012;1247;69450;-67
2022/08/27 08:20:18;;;;;;;;;;;;;;;29.76;35.67;96947.14;110117;1247;59748;-66
2022/08/27 08:23:07;;;;;;;7.60;5.00;;;;;;;30.01;34.42;96948.06;109649;1250;59634;-65
2022/08/27 08:25:37;;;;;;;9.40;4.60;;;;;;;30.50;33.32;96950.68;109888;1248;72194;-67
2022/08/27 08:28:10;;;;;;;8.80;5.70;;;;;;;30.40;33.15;96952.75;110074;1248;69864;-66
2022/08/27 08:30:42;;;;;;;8.90;5.00;;;;;;;30.70;33.61;96948.89;110030;1249;68623;-67
2022/08/27 08:33:12;;;;;;;10.10;5.10;;;;;;;30.61;33.93;96950.11;110039;1247;59754;-67
2022/08/27 08:35:41;;;;;;;6.90;4.90;;;;;;;30.56;33.12;96950.70;109800;1248;59699;-68
2022/08/27 08:38:09;;;;;;;;;;;;;;;30.86;33.28;96950.02;110041;1247;71622;-69
2022/08/27 08:40:42;;;;;;;8.80;4.60;;;;;;;30.97;32.99;96948.98;110043;1248;69472;-68
2022/08/27 08:43:50;;;;;;;8.60;4.00;;;;;;;31.62;32.01;96951.16;110187;1247;69409;-68
2022/08/27 08:46:47;;;;;;;8.60;4.40;;;;;;;32.11;30.89;96946.31;110620;1248;60019;-67
2022/08/27 08:49:35;;;;;;;6.40;4.00;;;;;;;31.83;31.60;96946.04;110484;1248;59708;-66
2022/08/27 08:52:30;;;;;;;8.70;4.60;;;;;;;32.39;30.43;96949.20;110079;1247;71273;-65
2022/08/27 08:55:29;;;;;;;6.40;3.40;;;;;;;32.49;29.63;96944.55;109765;1248;68851;-68
2022/08/27 08:58:22;;;;;;;5.30;3.10;;;;;;;32.93;29.59;96938.84;109975;1250;68924;-68
2022/08/27 09:00:56;;;;;;;4.40;3.50;;;;;;;33.32;27.48;96937.77;109650;1250;59720;-68
2022/08/27 09:03:27;;;;;;;11.80;4.60;;;;;;;33.76;28.47;96937.63;109673;1250;59722;-67
2022/08/27 09:06:05;;;;;;;5.20;3.80;;;;;;;33.80;26.74;96933.13;109791;1250;70602;-66
2022/08/27 09:08:37;;;;;;;4.10;3.40;;;;;;;33.66;26.69;96928.68;109886;1250;70489;-68
2022/08/27 09:11:42;;;;;;;6.60;3.90;;;;;;;33.79;27.40;96928.09;109715;1250;69420;-67
2022/08/27 09:14:41;;;;;;;7.30;4.00;;;;;;;33.19;28.18;96924.37;109997;1250;59694;-66
2022/08/27 09:17:13;;;;;;;5.60;3.90;;;;;;;33.34;27.64;96922.73;109710;1250;59682;-67
2022/08/27 09:19:42;;;;;;;7.50;4.60;;;;;;;33.35;27.06;96922.83;110002;1250;72031;-67
2022/08/27 09:22:52;;;;;;;5.60;3.80;;;;;;;33.48;27.06;96920.31;109999;1250;69455;-67
2022/08/27 09:25:27;;;;;;;7.70;3.90;;;;;;;33.54;27.43;96920.37;109272;1256;68701;-68
2022/08/27 09:28:00;;;;;;;6.70;3.80;;;;;;;33.86;26.55;96921.90;109327;1256;59738;-67
2022/08/27 09:30:39;;;;;;;8.10;3.70;;;;;;;33.52;27.21;96919.85;109675;1250;59685;-67
2022/08/27 09:33:08;;;;;;;7.10;4.10;;;;;;;34.18;27.97;96919.86;110001;1250;71983;-67
2022/08/27 09:35:43;;;;;;;6.60;3.90;;;;;;;34.13;26.20;96918.09;110028;1250;68626;-67
2022/08/27 09:38:28;;;;;;;4.90;3.20;;;;;;;34.76;24.72;96915.37;110011;1250;68492;-67
2022/08/27 09:41:01;;;;;;;6.80;3.60;;;;;;;35.05;24.99;96915.87;110004;1250;59735;-65
2022/08/27 09:43:32;;;;;;;9.70;3.80;;;;;;;35.11;25.46;96912.15;110279;1249;59714;-68
2022/08/27 09:46:22;;;;;;;11.50;3.90;;;;;;;35.48;24.46;96919.48;110525;1250;71336;-67
2022/08/27 09:48:52;;;;;;;6.60;3.70;;;;;;;35.11;25.29;96917.56;110032;1250;68633;-67
2022/08/27 09:51:27;;;;;;;10.50;4.10;;;;;;;34.92;25.66;96913.58;110015;1250;69611;-67
2022/08/27 09:54:01;;;;;;;8.80;3.70;;;;;;;35.19;24.59;96913.90;110034;1250;59680;-67
2022/08/27 09:56:46;;;;;;;7.80;3.90;;;;;;;35.24;24.99;96913.74;109957;1250;59688;-67
2022/08/27 09:59:29;;;;;;;10.40;4.50;;;;;;;35.94;23.59;96913.58;109842;1250;71331;-67
2022/08/27 10:02:16;;;;;;;6.10;3.40;;;;;;;35.47;23.52;96913.05;110051;1248;69259;-67
2022/08/27 10:04:51;;;;;;;7.30;3.60;;;;;;;35.65;23.90;96910.82;110072;1247;68595;-67
2022/08/27 10:07:24;;;;;;;5.70;3.40;;;;;;;36.14;24.28;96909.14;110061;1248;59665;-67
2022/08/27 10:10:03;;;;;;;7.90;3.80;;;;;;;37.06;23.13;96906.17;110035;1247;59707;-66
2022/08/27 10:12:41;;;;;;;;;;;;;;;37.48;22.73;96906.33;110053;1250;71967;-66
2022/08/27 10:15:13;;;;;;;5.80;3.70;;;;;;;38.12;22.32;96906.30;109672;1250;69015;-66
2022/08/27 10:17:52;;;;;;;6.60;3.40;;;;;;;38.29;21.72;96905.66;110053;1247;69554;-66
2022/08/27 10:20:51;;;;;;;8.10;3.40;;;;;;;38.57;20.68;96909.56;110057;1248;59750;-67
2022/08/27 10:23:45;;;;;;;6.30;3.30;;;;;;;37.87;20.41;96904.55;110062;1247;59638;-69
2022/08/27 10:26:21;;;;;;;9.60;3.40;;;;;;;37.75;20.23;96903.06;110017;1247;72277;-69
2022/08/27 10:29:29;;;;;;;6.30;3.20;;;;;;;37.58;20.15;96904.98;110112;1248;68444;-68
2022/08/27 10:32:18;;;;;;;8.30;3.80;;;;;;;37.61;20.22;96906.18;109844;1247;69236;-68
2022/08/27 10:34:57;;;;;;;6.00;3.00;;;;;;;38.09;19.34;96906.26;110117;1248;59691;-69
2022/08/27 10:37:53;;;;;;;7.40;3.40;;;;;;;38.14;18.35;96906.65;110079;1250;59689;-68
2022/08/27 10:40:25;;;;;;;10.00;3.50;;;;;;;38.97;19.14;96907.98;110062;1248;70877;-65
2022/08/27 10:43:24;;;;;;;5.80;3.30;;;;;;;38.57;20.51;96906.87;110090;1247;68729;-65
2022/08/27 10:46:28;;;;;;;10.00;3.40;;;;;;;38.69;19.77;96900.40;110054;1247;70024;-68
2022/08/27 10:49:14;;;;;;;7.80;3.50;;;;;;;38.24;20.67;96900.27;110086;1248;59707;-67
2022/08/27 10:52:19;;;;;;;9.50;3.40;;;;;;;38.45;20.82;96896.80;110585;1250;59668;-67
2022/08/27 10:55:02;;;;;;;7.00;2.80;;;;;;;38.51;19.56;96897.17;110570;1247;71110;-68
2022/08/27 10:58:02;;;;;;;7.00;3.30;;;;;;;38.50;18.98;96892.61;110271;1247;69963;-67
2022/08/27 11:00:38;;;;;;;10.30;3.90;;;;;;;38.83;20.62;96887.41;110044;1248;68476;-68
2022/08/27 11:03:18;;;;;;;8.60;3.60;;;;;;;39.18;20.12;96885.87;110045;1248;59701;-69
2022/08/27 11:05:49;;;;;;;9.50;3.60;;;;;;;39.16;19.51;96890.08;110126;1247;59752;-67
2022/08/27 11:08:42;;;;;;;7.10;2.80;;;;;;;39.44;17.93;96887.42;110101;1247;71508;-67
2022/08/27 11:11:20;;;;;;;9.70;3.80;;;;;;;39.43;18.01;96887.10;110027;1248;69363;-68
2022/08/27 11:14:59;;;;;;;8.60;3.50;;;;;;;39.28;17.40;96885.67;110031;1248;70290;-69
2022/08/27 11:17:52;;;;;;;6.30;2.90;;;;;;;39.62;17.89;96886.04;109851;1248;59726;-69
2022/08/27 11:20:30;;;;;;;8.30;4.10;;;;;;;39.94;18.14;96883.83;110040;1248;59672;-67
2022/08/27 11:23:07;;;;;;;7.90;3.60;;;;;;;39.79;18.74;96880.84;110022;1248;72129;-67
2022/08/27 11:25:58;;;;;;;6.00;2.90;;;;;;;39.55;18.61;96878.87;110018;1248;69700;-67
2022/08/27 11:28:46;;;;;;;8.40;3.40;;;;;;;39.79;19.01;96877.14;110019;1247;70510;-68
2022/08/27 11:31:21;;;;;;;11.30;3.70;;;;;;;39.54;18.29;96873.43;110042;1247;59964;-67
2022/08/27 11:34:28;;;;;;;8.90;3.40;;;;;;;40.38;16.85;96873.13;110072;1248;60136;-68
2022/08/27 11:37:21;;;;;;;11.00;3.20;;;;;;;39.65;17.83;96872.90;109916;1248;71807;-67
2022/08/27 11:39:53;;;;;;;5.60;3.60;;;;;;;39.75;18.65;96872.70;110051;1247;70007;-66
2022/08/27 11:42:40;;;;;;;6.30;3.30;;;;;;;39.99;18.81;96873.06;109654;1251;69635;-67
2022/08/27 11:45:20;;;;;;;7.10;3.90;;;;;;;40.46;18.41;96875.70;110064;1247;59681;-67
2022/08/27 11:48:01;;;;;;;8.40;3.70;;;;;;;39.35;18.91;96867.16;110094;1247;59658;-67
2022/08/27 11:50:30;;;;;;;11.70;3.30;;;;;;;40.10;19.45;96869.73;110085;1248;70807;-68
2022/08/27 11:53:06;;;;;;;6.60;3.20;;;;;;;40.36;18.67;96870.06;110063;1250;68752;-68
2022/08/27 11:55:38;;;;;;;7.00;3.30;;;;;;;39.58;17.91;96867.25;110089;1247;69627;-66
2022/08/27 11:58:09;;;;;;;6.20;2.90;;;;;;;38.94;18.64;96862.74;109960;1250;59719;-66
2022/08/27 12:00:40;;;;;;;8.50;2.90;;;;;;;38.79;19.31;96860.85;110090;1247;59680;-66
2022/08/27 12:03:18;;;;;;;9.90;3.50;;;;;;;38.46;19.76;96863.64;109724;1250;71342;-67
2022/08/27 12:05:52;;;;;;;11.00;3.70;;;;;;;37.71;20.31;96863.54;109990;1250;69877;-67